Bungay, Illinois
Current Conditions -  °F | °C
As of 2:15 PM on Wednesday 28 Jan 2015 (Local Time) from KFWC Reporting Station
Clear Clear  
Wind Chill: 35°   Ceiling: Unl
Heat Index: 42°   Visibility: 10mi
Dew Point: 31°   Wind: 15mph
Humidity: 65%   Direction: 130°SE
Pressure: 30.16"   Gusts: 18mph
Location:  38.1658°N, 88.3782°W
Report Text: KFWC 282015Z AUTO 13013G16KT 10SM CLR 06/00 A3016 RMK AO1 T00561005
Loading
Personal Weather Stations






























Interactive Weather Map New forecast layout! Learn more

10-Day Weather Forecast

Advertisements
Track Severe Weather on mobile